Aviation Digital Data Service (ADDS)

Output produced by METARs form (1102 UTC 17 June 2019)
found at http://www.aviationweather.gov/metar/data/
 
METAR text: VTCN 171000Z 21004KT 180V240 9999 BKN030 31/23 Q1002 NOSIG
Conditions at: VTCN (NAN/MUANG NAN , TH) observed 1000 UTC 17 June 2019
Temperature: 31.0°C (88°F)
Dewpoint: 23.0°C (73°F) [RH = 63%]
Pressure (altimeter): 29.59 inches Hg (1002.0 mb)
Winds: from the SSW (210 degrees) at 5 MPH (4 knots; 2.1 m/s)
Visibility: 6 or more miles (10+ km)
Ceiling: 3000 feet AGL
Clouds: broken clouds at 3000 feet AGL
Weather: no significant weather observed at this time

METAR text: VTCN 170900Z 17005KT 120V220 9999 SCT030 33/24 Q1002 NOSIG
Conditions at: VTCN (NAN/MUANG NAN , TH) observed 0900 UTC 17 June 2019
Temperature: 33.0°C (91°F)
Dewpoint: 24.0°C (75°F) [RH = 59%]
Pressure (altimeter): 29.59 inches Hg (1002.0 mb)
Winds: from the S (170 degrees) at 6 MPH (5 knots; 2.6 m/s)
Visibility: 6 or more miles (10+ km)
Ceiling: at least 12,000 feet AGL
Clouds: scattered clouds at 3000 feet AGL
Weather: no significant weather observed at this time

METAR text: VTCN 170800Z 18008KT 9999 BKN030 30/25 Q1003 NOSIG
Conditions at: VTCN (NAN/MUANG NAN , TH) observed 0800 UTC 17 June 2019
Temperature: 30.0°C (86°F)
Dewpoint: 25.0°C (77°F) [RH = 75%]
Pressure (altimeter): 29.62 inches Hg (1003.0 mb)
Winds: from the S (180 degrees) at 9 MPH (8 knots; 4.1 m/s)
Visibility: 6 or more miles (10+ km)
Ceiling: 3000 feet AGL
Clouds: broken clouds at 3000 feet AGL
Weather: no significant weather observed at this time

METAR text: VTCN 170700Z VRB02KT 9999 SCT030 33/25 Q1004 NOSIG
Conditions at: VTCN (NAN/MUANG NAN , TH) observed 0700 UTC 17 June 2019
Temperature: 33.0°C (91°F)
Dewpoint: 25.0°C (77°F) [RH = 63%]
Pressure (altimeter): 29.65 inches Hg (1004.0 mb)
Winds: variable direction winds at 2 MPH (2 knots; 1.0 m/s)
Visibility: 6 or more miles (10+ km)
Ceiling: at least 12,000 feet AGL
Clouds: scattered clouds at 3000 feet AGL
Weather: no significant weather observed at this time

METAR text: VTCN 170600Z 23005KT 9999 -RA BKN030 28/25 Q1005 NOSIG
Conditions at: VTCN (NAN/MUANG NAN , TH) observed 0600 UTC 17 June 2019
Temperature: 28.0°C (82°F)
Dewpoint: 25.0°C (77°F) [RH = 84%]
Pressure (altimeter): 29.68 inches Hg (1005.0 mb)
Winds: from the SW (230 degrees) at 6 MPH (5 knots; 2.6 m/s)
Visibility: 6 or more miles (10+ km)
Ceiling: 3000 feet AGL
Clouds: broken clouds at 3000 feet AGL
Weather: -RA  (light rain)

METAR text: VTCN 170500Z 14004KT 060V180 9999 BKN030 32/22 Q1005 NOSIG
Conditions at: VTCN (NAN/MUANG NAN , TH) observed 0500 UTC 17 June 2019
Temperature: 32.0°C (90°F)
Dewpoint: 22.0°C (72°F) [RH = 56%]
Pressure (altimeter): 29.68 inches Hg (1005.0 mb)
Winds: from the SE (140 degrees) at 5 MPH (4 knots; 2.1 m/s)
Visibility: 6 or more miles (10+ km)
Ceiling: 3000 feet AGL
Clouds: broken clouds at 3000 feet AGL
Weather: no significant weather observed at this time

METAR text: VTCN 170400Z 16005KT 130V200 9999 SCT030 31/23 Q1006 NOSIG
Conditions at: VTCN (NAN/MUANG NAN , TH) observed 0400 UTC 17 June 2019
Temperature: 31.0°C (88°F)
Dewpoint: 23.0°C (73°F) [RH = 63%]
Pressure (altimeter): 29.70 inches Hg (1006.0 mb)
Winds: from the SSE (160 degrees) at 6 MPH (5 knots; 2.6 m/s)
Visibility: 6 or more miles (10+ km)
Ceiling: at least 12,000 feet AGL
Clouds: scattered clouds at 3000 feet AGL
Weather: no significant weather observed at this time

METAR text: VTCN 170300Z 17005KT 110V230 9999 BKN025 30/23 Q1006 NOSIG
Conditions at: VTCN (NAN/MUANG NAN , TH) observed 0300 UTC 17 June 2019
Temperature: 30.0°C (86°F)
Dewpoint: 23.0°C (73°F) [RH = 66%]
Pressure (altimeter): 29.70 inches Hg (1006.0 mb)
Winds: from the S (170 degrees) at 6 MPH (5 knots; 2.6 m/s)
Visibility: 6 or more miles (10+ km)
Ceiling: 2500 feet AGL
Clouds: broken clouds at 2500 feet AGL
Weather: no significant weather observed at this time

METAR text: VTCN 170200Z 16005KT 100V200 9999 BKN025 BKN100 29/24 Q1006 NOSIG
Conditions at: VTCN (NAN/MUANG NAN , TH) observed 0200 UTC 17 June 2019
Temperature: 29.0°C (84°F)
Dewpoint: 24.0°C (75°F) [RH = 74%]
Pressure (altimeter): 29.70 inches Hg (1006.0 mb)
Winds: from the SSE (160 degrees) at 6 MPH (5 knots; 2.6 m/s)
Visibility: 6 or more miles (10+ km)
Ceiling: 2500 feet AGL
Clouds: broken clouds at 2500 feet AGL
broken clouds at 10000 feet AGL
Weather: no significant weather observed at this time

METAR text: VTCN 170100Z VRB02KT 9999 BKN025 BKN100 27/25 Q1006 NOSIG
Conditions at: VTCN (NAN/MUANG NAN , TH) observed 0100 UTC 17 June 2019
Temperature: 27.0°C (81°F)
Dewpoint: 25.0°C (77°F) [RH = 89%]
Pressure (altimeter): 29.70 inches Hg (1006.0 mb)
Winds: variable direction winds at 2 MPH (2 knots; 1.0 m/s)
Visibility: 6 or more miles (10+ km)
Ceiling: 2500 feet AGL
Clouds: broken clouds at 2500 feet AGL
broken clouds at 10000 feet AGL
Weather: no significant weather observed at this time

METAR text: VTCN 170000Z VRB02KT 9999 BKN025 BKN100 26/26 Q1006 NOSIG
Conditions at: VTCN (NAN/MUANG NAN , TH) observed 0000 UTC 17 June 2019
Temperature: 26.0°C (79°F)
Dewpoint: 26.0°C (79°F) [RH = 100%]
Pressure (altimeter): 29.70 inches Hg (1006.0 mb)
Winds: variable direction winds at 2 MPH (2 knots; 1.0 m/s)
Visibility: 6 or more miles (10+ km)
Ceiling: 2500 feet AGL
Clouds: broken clouds at 2500 feet AGL
broken clouds at 10000 feet AGL
Weather: no significant weather observed at this time

METAR text: VTCN 162300Z VRB02KT 9999 BKN025 BKN100 25/25 Q1005 NOSIG
Conditions at: VTCN (NAN/MUANG NAN , TH) observed 2300 UTC 16 June 2019
Temperature: 25.0°C (77°F)
Dewpoint: 25.0°C (77°F) [RH = 100%]
Pressure (altimeter): 29.68 inches Hg (1005.0 mb)
Winds: variable direction winds at 2 MPH (2 knots; 1.0 m/s)
Visibility: 6 or more miles (10+ km)
Ceiling: 2500 feet AGL
Clouds: broken clouds at 2500 feet AGL
broken clouds at 10000 feet AGL
Weather: no significant weather observed at this time

METAR text: VTCN 161100Z 14004KT 070V210 9999 SCT030 SCT100 32/24 Q1002 NOSIG
Conditions at: VTCN (NAN/MUANG NAN , TH) observed 1100 UTC 16 June 2019
Temperature: 32.0°C (90°F)
Dewpoint: 24.0°C (75°F) [RH = 63%]
Pressure (altimeter): 29.59 inches Hg (1002.0 mb)
Winds: from the SE (140 degrees) at 5 MPH (4 knots; 2.1 m/s)
Visibility: 6 or more miles (10+ km)
Ceiling: at least 12,000 feet AGL
Clouds: scattered clouds at 3000 feet AGL
scattered clouds at 10000 feet AGL
Weather: no significant weather observed at this time

METAR text: VTCN 161000Z 12005KT 050V170 9999 SCT030 SCT100 33/24 Q1002 NOSIG
Conditions at: VTCN (NAN/MUANG NAN , TH) observed 1000 UTC 16 June 2019
Temperature: 33.0°C (91°F)
Dewpoint: 24.0°C (75°F) [RH = 59%]
Pressure (altimeter): 29.59 inches Hg (1002.0 mb)
Winds: from the ESE (120 degrees) at 6 MPH (5 knots; 2.6 m/s)
Visibility: 6 or more miles (10+ km)
Ceiling: at least 12,000 feet AGL
Clouds: scattered clouds at 3000 feet AGL
scattered clouds at 10000 feet AGL
Weather: no significant weather observed at this time

METAR text: VTCN 160900Z VRB04KT 9999 SCT030 SCT100 33/23 Q1002 NOSIG
Conditions at: VTCN (NAN/MUANG NAN , TH) observed 0900 UTC 16 June 2019
Temperature: 33.0°C (91°F)
Dewpoint: 23.0°C (73°F) [RH = 56%]
Pressure (altimeter): 29.59 inches Hg (1002.0 mb)
Winds: variable direction winds at 5 MPH (4 knots; 2.1 m/s)
Visibility: 6 or more miles (10+ km)
Ceiling: at least 12,000 feet AGL
Clouds: scattered clouds at 3000 feet AGL
scattered clouds at 10000 feet AGL
Weather: no significant weather observed at this time

METAR text: VTCN 160800Z VRB02KT 9999 SCT030 SCT100 33/23 Q1003 NOSIG
Conditions at: VTCN (NAN/MUANG NAN , TH) observed 0800 UTC 16 June 2019
Temperature: 33.0°C (91°F)
Dewpoint: 23.0°C (73°F) [RH = 56%]
Pressure (altimeter): 29.62 inches Hg (1003.0 mb)
Winds: variable direction winds at 2 MPH (2 knots; 1.0 m/s)
Visibility: 6 or more miles (10+ km)
Ceiling: at least 12,000 feet AGL
Clouds: scattered clouds at 3000 feet AGL
scattered clouds at 10000 feet AGL
Weather: no significant weather observed at this time

METAR text: VTCN 160700Z 13004KT 030V200 9999 BKN025 32/23 Q1004 NOSIG
Conditions at: VTCN (NAN/MUANG NAN , TH) observed 0700 UTC 16 June 2019
Temperature: 32.0°C (90°F)
Dewpoint: 23.0°C (73°F) [RH = 59%]
Pressure (altimeter): 29.65 inches Hg (1004.0 mb)
Winds: from the SE (130 degrees) at 5 MPH (4 knots; 2.1 m/s)
Visibility: 6 or more miles (10+ km)
Ceiling: 2500 feet AGL
Clouds: broken clouds at 2500 feet AGL
Weather: no significant weather observed at this time

METAR text: VTCN 160600Z 15004KT 120V250 9999 BKN025 32/23 Q1005 NOSIG
Conditions at: VTCN (NAN/MUANG NAN , TH) observed 0600 UTC 16 June 2019
Temperature: 32.0°C (90°F)
Dewpoint: 23.0°C (73°F) [RH = 59%]
Pressure (altimeter): 29.68 inches Hg (1005.0 mb)
Winds: from the SSE (150 degrees) at 5 MPH (4 knots; 2.1 m/s)
Visibility: 6 or more miles (10+ km)
Ceiling: 2500 feet AGL
Clouds: broken clouds at 2500 feet AGL
Weather: no significant weather observed at this time

METAR text: VTCN 160500Z 21005KT 160V260 9999 BKN025 31/23 Q1006 NOSIG
Conditions at: VTCN (NAN/MUANG NAN , TH) observed 0500 UTC 16 June 2019
Temperature: 31.0°C (88°F)
Dewpoint: 23.0°C (73°F) [RH = 63%]
Pressure (altimeter): 29.70 inches Hg (1006.0 mb)
Winds: from the SSW (210 degrees) at 6 MPH (5 knots; 2.6 m/s)
Visibility: 6 or more miles (10+ km)
Ceiling: 2500 feet AGL
Clouds: broken clouds at 2500 feet AGL
Weather: no significant weather observed at this time

METAR text: VTCN 160400Z 22005KT 170V270 9999 BKN025 32/23 Q1006 NOSIG
Conditions at: VTCN (NAN/MUANG NAN , TH) observed 0400 UTC 16 June 2019
Temperature: 32.0°C (90°F)
Dewpoint: 23.0°C (73°F) [RH = 59%]
Pressure (altimeter): 29.70 inches Hg (1006.0 mb)
Winds: from the SW (220 degrees) at 6 MPH (5 knots; 2.6 m/s)
Visibility: 6 or more miles (10+ km)
Ceiling: 2500 feet AGL
Clouds: broken clouds at 2500 feet AGL
Weather: no significant weather observed at this time

METAR text: VTCN 160300Z 19007KT 140V230 9999 BKN025 30/23 Q1007 NOSIG
Conditions at: VTCN (NAN/MUANG NAN , TH) observed 0300 UTC 16 June 2019
Temperature: 30.0°C (86°F)
Dewpoint: 23.0°C (73°F) [RH = 66%]
Pressure (altimeter): 29.73 inches Hg (1007.0 mb)
Winds: from the S (190 degrees) at 8 MPH (7 knots; 3.6 m/s)
Visibility: 6 or more miles (10+ km)
Ceiling: 2500 feet AGL
Clouds: broken clouds at 2500 feet AGL
Weather: no significant weather observed at this time

METAR text: VTCN 160200Z 15005KT 110V180 9999 BKN025 28/24 Q1007 NOSIG
Conditions at: VTCN (NAN/MUANG NAN , TH) observed 0200 UTC 16 June 2019
Temperature: 28.0°C (82°F)
Dewpoint: 24.0°C (75°F) [RH = 79%]
Pressure (altimeter): 29.73 inches Hg (1007.0 mb)
Winds: from the SSE (150 degrees) at 6 MPH (5 knots; 2.6 m/s)
Visibility: 6 or more miles (10+ km)
Ceiling: 2500 feet AGL
Clouds: broken clouds at 2500 feet AGL
Weather: no significant weather observed at this time

METAR text: VTCN 160100Z VRB04KT 9999 BKN025 28/25 Q1006 NOSIG
Conditions at: VTCN (NAN/MUANG NAN , TH) observed 0100 UTC 16 June 2019
Temperature: 28.0°C (82°F)
Dewpoint: 25.0°C (77°F) [RH = 84%]
Pressure (altimeter): 29.70 inches Hg (1006.0 mb)
Winds: variable direction winds at 5 MPH (4 knots; 2.1 m/s)
Visibility: 6 or more miles (10+ km)
Ceiling: 2500 feet AGL
Clouds: broken clouds at 2500 feet AGL
Weather: no significant weather observed at this time

METAR text: VTCN 160000Z VRB02KT 9999 BKN025 27/25 Q1006 NOSIG
Conditions at: VTCN (NAN/MUANG NAN , TH) observed 0000 UTC 16 June 2019
Temperature: 27.0°C (81°F)
Dewpoint: 25.0°C (77°F) [RH = 89%]
Pressure (altimeter): 29.70 inches Hg (1006.0 mb)
Winds: variable direction winds at 2 MPH (2 knots; 1.0 m/s)
Visibility: 6 or more miles (10+ km)
Ceiling: 2500 feet AGL
Clouds: broken clouds at 2500 feet AGL
Weather: no significant weather observed at this time

Forecast for: VTCN (NAN/MUANG NAN , TH)
Text: TAF VTCN 170500Z 1706/1806 16005KT 9999 SCT025
Forecast period: 0600 UTC 17 June 2019 to 0600 UTC 18 June 2019
Forecast type: FROM: standard forecast or significant change
Winds: from the SSE (160 degrees) at 6 MPH (5 knots; 2.6 m/s)
Visibility: 6 or more miles 10+ km)
Ceiling: at least 12,000 feet AGL
Clouds: scattered clouds at 2500 feet AGL
Weather: no significant weather forecast for this period
Text: TEMPO 1709/1713 VRB15G30KT 5000 TSRA FEW020CB BKN025 OVC080
Forecast period: 0900 to 1300 UTC 17 June 2019
Forecast type: TEMPORARY: The following changes expected for less than half the time period
Winds: variable direction winds at 17 MPH (15 knots; 7.7 m/s)
gusting to 34 MPH (30 knots; 15.4 m/s)
Visibility: 3 miles (5 km)
Ceiling: 2500 feet AGL
Clouds: few clouds at 2000 feet AGL
broken clouds at 2500 feet AGL
overcast cloud deck at 8000 feet AGL
Weather: TSRA  (rain associated with thunderstorm(s))